sensor_id;sensor_type;location;lat;lon;timestamp;P1;durP1;ratioP1;P2;durP2;ratioP2
3463;SDS011;3551;41.578;24.706;2024-02-26T06:08:40;17.17;;;8.87;;
3463;SDS011;3551;41.578;24.706;2024-02-26T06:11:45;15.27;;;8.57;;
3463;SDS011;3551;41.578;24.706;2024-02-26T06:15:10;18.33;;;10.37;;
3463;SDS011;3551;41.578;24.706;2024-02-26T06:17:56;13.70;;;9.87;;
3463;SDS011;3551;41.578;24.706;2024-02-26T06:20:54;24.47;;;14.40;;
3463;SDS011;3551;41.578;24.706;2024-02-26T06:23:32;31.60;;;14.43;;
3463;SDS011;3551;41.578;24.706;2024-02-26T06:26:32;29.10;;;18.80;;
3463;SDS011;3551;41.578;24.706;2024-02-26T06:29:12;38.57;;;21.33;;
3463;SDS011;3551;41.578;24.706;2024-02-26T06:31:47;31.13;;;19.40;;
3463;SDS011;3551;41.578;24.706;2024-02-26T06:34:25;40.77;;;22.37;;
3463;SDS011;3551;41.578;24.706;2024-02-26T06:37:03;35.37;;;21.33;;
3463;SDS011;3551;41.578;24.706;2024-02-26T06:39:31;31.10;;;19.40;;
3463;SDS011;3551;41.578;24.706;2024-02-26T06:42:05;38.07;;;21.80;;
3463;SDS011;3551;41.578;24.706;2024-02-26T06:44:57;40.93;;;23.93;;
3463;SDS011;3551;41.578;24.706;2024-02-26T06:47:26;39.90;;;24.27;;
3463;SDS011;3551;41.578;24.706;2024-02-26T06:50:15;43.60;;;22.60;;
3463;SDS011;3551;41.578;24.706;2024-02-26T06:56:47;37.87;;;22.80;;
3463;SDS011;3551;41.578;24.706;2024-02-26T06:59:30;50.53;;;22.87;;
3463;SDS011;3551;41.578;24.706;2024-02-26T07:05:22;39.97;;;23.27;;
3463;SDS011;3551;41.578;24.706;2024-02-26T07:07:53;47.97;;;23.57;;
3463;SDS011;3551;41.578;24.706;2024-02-26T07:10:51;41.80;;;22.43;;
3463;SDS011;3551;41.578;24.706;2024-02-26T07:17:27;32.17;;;21.50;;
3463;SDS011;3551;41.578;24.706;2024-02-26T07:52:58;51.83;;;26.47;;
3463;SDS011;3551;41.578;24.706;2024-02-26T08:23:59;70.63;;;28.20;;
3463;SDS011;3551;41.578;24.706;2024-02-26T08:26:35;50.67;;;25.23;;
3463;SDS011;3551;41.578;24.706;2024-02-26T08:29:24;50.80;;;26.13;;
3463;SDS011;3551;41.578;24.706;2024-02-26T08:39:59;75.87;;;30.77;;
3463;SDS011;3551;41.578;24.706;2024-02-26T08:45:18;59.53;;;32.77;;
3463;SDS011;3551;41.578;24.706;2024-02-26T08:47:53;76.37;;;37.07;;
3463;SDS011;3551;41.578;24.706;2024-02-26T08:51:00;74.10;;;39.70;;
3463;SDS011;3551;41.578;24.706;2024-02-26T08:53:32;68.33;;;33.70;;
3463;SDS011;3551;41.578;24.706;2024-02-26T08:56:04;59.07;;;33.37;;
3463;SDS011;3551;41.578;24.706;2024-02-26T08:58:36;81.27;;;33.73;;
3463;SDS011;3551;41.578;24.706;2024-02-26T09:01:05;67.50;;;33.00;;
3463;SDS011;3551;41.578;24.706;2024-02-26T09:03:46;80.50;;;34.37;;
3463;SDS011;3551;41.578;24.706;2024-02-26T09:06:15;78.43;;;34.43;;
3463;SDS011;3551;41.578;24.706;2024-02-26T09:08:45;116.97;;;37.87;;
3463;SDS011;3551;41.578;24.706;2024-02-26T09:11:58;85.87;;;36.77;;
3463;SDS011;3551;41.578;24.706;2024-02-26T09:14:27;71.97;;;35.30;;
3463;SDS011;3551;41.578;24.706;2024-02-26T09:17:53;73.50;;;35.40;;
3463;SDS011;3551;41.578;24.706;2024-02-26T09:30:57;69.33;;;29.90;;
3463;SDS011;3551;41.578;24.706;2024-02-26T09:33:51;72.37;;;25.60;;
3463;SDS011;3551;41.578;24.706;2024-02-26T09:39:08;54.63;;;22.87;;
3463;SDS011;3551;41.578;24.706;2024-02-26T09:42:11;71.47;;;27.33;;
3463;SDS011;3551;41.578;24.706;2024-02-26T09:44:44;44.57;;;21.27;;
3463;SDS011;3551;41.578;24.706;2024-02-26T09:50:20;27.00;;;12.50;;
3463;SDS011;3551;41.578;24.706;2024-02-26T09:56:11;24.87;;;10.20;;
3463;SDS011;3551;41.578;24.706;2024-02-26T09:58:41;15.33;;;8.63;;
3463;SDS011;3551;41.578;24.706;2024-02-26T10:01:24;16.33;;;9.47;;
3463;SDS011;3551;41.578;24.706;2024-02-26T10:04:00;19.03;;;10.40;;
3463;SDS011;3551;41.578;24.706;2024-02-26T10:06:46;16.67;;;8.97;;
3463;SDS011;3551;41.578;24.706;2024-02-26T10:09:15;13.60;;;8.00;;
3463;SDS011;3551;41.578;24.706;2024-02-26T10:11:44;14.27;;;8.50;;
3463;SDS011;3551;41.578;24.706;2024-02-26T10:14:16;22.67;;;6.60;;
3463;SDS011;3551;41.578;24.706;2024-02-26T10:19:48;13.47;;;4.13;;
3463;SDS011;3551;41.578;24.706;2024-02-26T10:22:23;7.80;;;4.10;;
3463;SDS011;3551;41.578;24.706;2024-02-26T10:24:51;10.83;;;6.30;;
3463;SDS011;3551;41.578;24.706;2024-02-26T10:27:21;22.03;;;7.27;;
3463;SDS011;3551;41.578;24.706;2024-02-26T10:33:02;20.23;;;9.10;;
3463;SDS011;3551;41.578;24.706;2024-02-26T10:35:39;13.33;;;6.40;;
3463;SDS011;3551;41.578;24.706;2024-02-26T10:38:12;19.23;;;8.67;;
3463;SDS011;3551;41.578;24.706;2024-02-26T10:44:33;21.83;;;7.70;;
3463;SDS011;3551;41.578;24.706;2024-02-26T10:47:02;34.53;;;8.03;;
3463;SDS011;3551;41.578;24.706;2024-02-26T10:49:44;30.63;;;7.67;;
3463;SDS011;3551;41.578;24.706;2024-02-26T10:55:05;18.73;;;7.00;;
3463;SDS011;3551;41.578;24.706;2024-02-26T10:57:38;15.47;;;6.50;;
3463;SDS011;3551;41.578;24.706;2024-02-26T11:00:10;17.57;;;7.47;;
3463;SDS011;3551;41.578;24.706;2024-02-26T11:02:53;19.10;;;6.10;;
3463;SDS011;3551;41.578;24.706;2024-02-26T11:05:21;10.73;;;4.33;;
3463;SDS011;3551;41.578;24.706;2024-02-26T11:14:53;18.67;;;4.77;;
3463;SDS011;3551;41.578;24.706;2024-02-26T11:17:28;16.77;;;5.73;;
3463;SDS011;3551;41.578;24.706;2024-02-26T11:19:57;23.97;;;5.20;;
3463;SDS011;3551;41.578;24.706;2024-02-26T11:22:29;8.70;;;3.50;;
3463;SDS011;3551;41.578;24.706;2024-02-26T13:23:33;10.50;;;4.07;;
3463;SDS011;3551;41.578;24.706;2024-02-26T14:44:00;12.70;;;4.07;;
3463;SDS011;3551;41.578;24.706;2024-02-26T14:46:30;20.30;;;4.30;;
3463;SDS011;3551;41.578;24.706;2024-02-26T15:07:10;18.10;;;6.67;;
3463;SDS011;3551;41.578;24.706;2024-02-26T15:09:51;13.93;;;5.77;;
3463;SDS011;3551;41.578;24.706;2024-02-26T15:15:56;17.30;;;6.33;;
3463;SDS011;3551;41.578;24.706;2024-02-26T15:18:32;20.93;;;9.07;;
3463;SDS011;3551;41.578;24.706;2024-02-26T15:21:00;16.67;;;8.43;;
